sensor_id;sensor_type;location;lat;lon;timestamp;pressure;altitude;pressure_sealevel;temperature;humidity
49651;BME280;35547;55.676;37.492;2022-08-21T00:00:01;99947.00;;;23.02;nan
49651;BME280;35547;55.676;37.492;2022-08-21T00:01:03;99958.47;;;22.88;nan
49651;BME280;35547;55.676;37.492;2022-08-21T00:02:26;99957.03;;;23.11;nan
49651;BME280;35547;55.676;37.492;2022-08-21T00:03:27;99961.84;;;23.19;nan
49651;BME280;35547;55.676;37.492;2022-08-21T00:04:28;99957.16;;;23.37;nan
49651;BME280;35547;55.676;37.492;2022-08-21T00:05:30;99961.31;;;23.14;nan
49651;BME280;35547;55.676;37.492;2022-08-21T00:06:32;99952.94;;;23.20;nan
49651;BME280;35547;55.676;37.492;2022-08-21T00:07:33;99936.81;;;23.08;nan
49651;BME280;35547;55.676;37.492;2022-08-21T00:08:35;99940.22;;;23.10;nan
49651;BME280;35547;55.676;37.492;2022-08-21T00:09:36;99944.22;;;22.89;nan
49651;BME280;35547;55.676;37.492;2022-08-21T00:10:39;99960.31;;;23.02;nan
49651;BME280;35547;55.676;37.492;2022-08-21T00:11:40;99957.50;;;23.18;nan
49651;BME280;35547;55.676;37.492;2022-08-21T00:12:41;99965.16;;;23.37;nan
49651;BME280;35547;55.676;37.492;2022-08-21T00:13:42;99949.91;;;23.12;nan
49651;BME280;35547;55.676;37.492;2022-08-21T00:14:43;99954.34;;;23.25;nan
49651;BME280;35547;55.676;37.492;2022-08-21T00:15:43;99950.75;;;22.98;nan
49651;BME280;35547;55.676;37.492;2022-08-21T00:16:44;99951.44;;;23.01;nan
49651;BME280;35547;55.676;37.492;2022-08-21T00:17:45;99947.84;;;22.74;nan
49651;BME280;35547;55.676;37.492;2022-08-21T00:18:46;99955.03;;;22.86;nan
49651;BME280;35547;55.676;37.492;2022-08-21T00:19:46;99957.34;;;23.06;nan
49651;BME280;35547;55.676;37.492;2022-08-21T00:20:47;99940.03;;;22.85;nan
49651;BME280;35547;55.676;37.492;2022-08-21T00:21:48;99939.03;;;22.59;nan
49651;BME280;35547;55.676;37.492;2022-08-21T00:22:48;99936.63;;;22.83;nan
49651;BME280;35547;55.676;37.492;2022-08-21T00:23:49;99940.34;;;22.80;nan
49651;BME280;35547;55.676;37.492;2022-08-21T00:24:50;99957.88;;;22.97;nan
49651;BME280;35547;55.676;37.492;2022-08-21T00:25:50;99958.16;;;23.21;nan
49651;BME280;35547;55.676;37.492;2022-08-21T00:26:51;99957.94;;;23.24;nan
49651;BME280;35547;55.676;37.492;2022-08-21T00:27:53;99956.72;;;23.30;nan
49651;BME280;35547;55.676;37.492;2022-08-21T00:28:53;99951.63;;;22.84;nan
49651;BME280;35547;55.676;37.492;2022-08-21T00:29:54;99953.31;;;22.99;nan
49651;BME280;35547;55.676;37.492;2022-08-21T00:30:55;99940.69;;;22.88;nan
49651;BME280;35547;55.676;37.492;2022-08-21T00:31:56;99957.81;;;22.84;nan
49651;BME280;35547;55.676;37.492;2022-08-21T00:32:58;99947.81;;;22.88;nan
49651;BME280;35547;55.676;37.492;2022-08-21T00:33:58;99956.00;;;22.85;nan
49651;BME280;35547;55.676;37.492;2022-08-21T00:34:59;99964.47;;;23.06;nan
49651;BME280;35547;55.676;37.492;2022-08-21T00:36:00;99957.44;;;22.76;nan
49651;BME280;35547;55.676;37.492;2022-08-21T00:37:00;99944.69;;;22.96;nan
49651;BME280;35547;55.676;37.492;2022-08-21T00:38:02;99948.09;;;22.98;nan
49651;BME280;35547;55.676;37.492;2022-08-21T00:39:06;99936.78;;;22.94;nan
49651;BME280;35547;55.676;37.492;2022-08-21T00:40:10;99949.56;;;22.75;nan
49651;BME280;35547;55.676;37.492;2022-08-21T00:41:11;99949.34;;;22.92;nan
49651;BME280;35547;55.676;37.492;2022-08-21T00:42:13;99946.69;;;22.92;nan
49651;BME280;35547;55.676;37.492;2022-08-21T00:43:20;99943.81;;;23.09;nan
49651;BME280;35547;55.676;37.492;2022-08-21T00:44:21;99929.94;;;22.90;nan
49651;BME280;35547;55.676;37.492;2022-08-21T00:45:23;99928.09;;;22.63;nan
49651;BME280;35547;55.676;37.492;2022-08-21T00:46:23;99935.97;;;23.21;nan
49651;BME280;35547;55.676;37.492;2022-08-21T00:47:24;99937.94;;;22.90;nan
49651;BME280;35547;55.676;37.492;2022-08-21T00:48:26;99925.72;;;22.59;nan
49651;BME280;35547;55.676;37.492;2022-08-21T00:49:26;99938.13;;;22.87;nan
49651;BME280;35547;55.676;37.492;2022-08-21T00:50:30;99945.56;;;22.67;nan
49651;BME280;35547;55.676;37.492;2022-08-21T00:51:39;99950.19;;;22.93;nan
49651;BME280;35547;55.676;37.492;2022-08-21T00:52:42;99933.19;;;22.81;nan
49651;BME280;35547;55.676;37.492;2022-08-21T00:53:44;99935.94;;;22.65;nan
49651;BME280;35547;55.676;37.492;2022-08-21T00:54:46;99950.69;;;22.85;nan
49651;BME280;35547;55.676;37.492;2022-08-21T00:55:48;99936.34;;;22.30;nan
49651;BME280;35547;55.676;37.492;2022-08-21T00:56:59;99929.59;;;22.24;nan
49651;BME280;35547;55.676;37.492;2022-08-21T00:58:01;99949.66;;;22.44;nan
49651;BME280;35547;55.676;37.492;2022-08-21T00:59:03;99943.94;;;22.65;nan
49651;BME280;35547;55.676;37.492;2022-08-21T01:00:09;99948.53;;;22.63;nan
49651;BME280;35547;55.676;37.492;2022-08-21T01:01:11;99946.44;;;22.68;nan
49651;BME280;35547;55.676;37.492;2022-08-21T01:02:12;99936.16;;;22.47;nan
49651;BME280;35547;55.676;37.492;2022-08-21T01:03:18;99938.94;;;22.46;nan
49651;BME280;35547;55.676;37.492;2022-08-21T01:04:19;99936.63;;;22.25;nan
49651;BME280;35547;55.676;37.492;2022-08-21T01:05:20;99939.97;;;22.58;nan
49651;BME280;35547;55.676;37.492;2022-08-21T01:06:20;99940.81;;;22.73;nan
49651;BME280;35547;55.676;37.492;2022-08-21T01:07:21;99928.38;;;22.59;nan
49651;BME280;35547;55.676;37.492;2022-08-21T01:08:23;99947.00;;;22.44;nan
49651;BME280;35547;55.676;37.492;2022-08-21T01:09:23;99959.34;;;22.60;nan
49651;BME280;35547;55.676;37.492;2022-08-21T01:10:24;99949.75;;;22.57;nan
49651;BME280;35547;55.676;37.492;2022-08-21T01:11:25;99955.25;;;22.40;nan
49651;BME280;35547;55.676;37.492;2022-08-21T01:12:26;99955.34;;;22.67;nan
49651;BME280;35547;55.676;37.492;2022-08-21T01:13:28;99950.59;;;22.72;nan
49651;BME280;35547;55.676;37.492;2022-08-21T01:14:31;99944.50;;;22.56;nan
49651;BME280;35547;55.676;37.492;2022-08-21T01:15:36;99952.78;;;22.65;nan
49651;BME280;35547;55.676;37.492;2022-08-21T01:16:39;99957.25;;;22.36;nan
49651;BME280;35547;55.676;37.492;2022-08-21T01:17:40;99951.09;;;22.20;nan
49651;BME280;35547;55.676;37.492;2022-08-21T01:18:40;99958.28;;;22.34;nan
49651;BME280;35547;55.676;37.492;2022-08-21T01:19:41;99952.59;;;22.54;nan
49651;BME280;35547;55.676;37.492;2022-08-21T01:21:18;99944.81;;;22.51;nan
49651;BME280;35547;55.676;37.492;2022-08-21T01:22:11;99950.88;;;22.39;nan
49651;BME280;35547;55.676;37.492;2022-08-21T01:23:11;99947.47;;;22.51;nan
49651;BME280;35547;55.676;37.492;2022-08-21T01:24:13;99923.03;;;22.30;nan
49651;BME280;35547;55.676;37.492;2022-08-21T01:25:15;99948.44;;;22.05;nan
49651;BME280;35547;55.676;37.492;2022-08-21T01:26:20;99940.63;;;22.02;nan
49651;BME280;35547;55.676;37.492;2022-08-21T01:27:21;99944.84;;;22.21;nan
49651;BME280;35547;55.676;37.492;2022-08-21T01:28:22;99938.09;;;22.15;nan
49651;BME280;35547;55.676;37.492;2022-08-21T01:29:37;99943.66;;;22.41;nan
49651;BME280;35547;55.676;37.492;2022-08-21T01:30:40;99949.19;;;22.38;nan
49651;BME280;35547;55.676;37.492;2022-08-21T01:31:42;99935.78;;;22.25;nan
49651;BME280;35547;55.676;37.492;2022-08-21T01:32:42;99948.31;;;22.23;nan
49651;BME280;35547;55.676;37.492;2022-08-21T01:33:43;99940.94;;;22.12;nan
49651;BME280;35547;55.676;37.492;2022-08-21T01:34:46;99932.88;;;22.14;nan
49651;BME280;35547;55.676;37.492;2022-08-21T01:35:47;99940.72;;;22.31;nan
49651;BME280;35547;55.676;37.492;2022-08-21T01:36:48;99937.88;;;22.48;nan
49651;BME280;35547;55.676;37.492;2022-08-21T01:37:48;99945.69;;;22.21;nan
49651;BME280;35547;55.676;37.492;2022-08-21T01:38:49;99934.16;;;21.92;nan
49651;BME280;35547;55.676;37.492;2022-08-21T01:39:50;99943.56;;;21.98;nan
49651;BME280;35547;55.676;37.492;2022-08-21T01:40:51;99939.13;;;22.13;nan
49651;BME280;35547;55.676;37.492;2022-08-21T01:41:51;99939.13;;;22.13;nan
49651;BME280;35547;55.676;37.492;2022-08-21T01:42:52;99939.00;;;21.85;nan
49651;BME280;35547;55.676;37.492;2022-08-21T01:43:53;99946.06;;;22.01;nan
49651;BME280;35547;55.676;37.492;2022-08-21T01:44:53;99943.97;;;22.06;nan
49651;BME280;35547;55.676;37.492;2022-08-21T01:45:54;99948.59;;;22.33;nan
49651;BME280;35547;55.676;37.492;2022-08-21T01:46:55;99947.66;;;22.34;nan
49651;BME280;35547;55.676;37.492;2022-08-21T01:47:57;99944.00;;;22.20;nan
49651;BME280;35547;55.676;37.492;2022-08-21T01:48:58;99930.63;;;21.77;nan
49651;BME280;35547;55.676;37.492;2022-08-21T01:49:59;99946.22;;;21.83;nan
49651;BME280;35547;55.676;37.492;2022-08-21T01:50:59;99944.06;;;21.74;nan
49651;BME280;35547;55.676;37.492;2022-08-21T01:52:00;99950.97;;;21.93;nan
49651;BME280;35547;55.676;37.492;2022-08-21T01:53:01;99946.34;;;21.96;nan
49651;BME280;35547;55.676;37.492;2022-08-21T01:54:02;99944.84;;;22.21;nan
49651;BME280;35547;55.676;37.492;2022-08-21T01:55:04;99928.66;;;21.95;nan
49651;BME280;35547;55.676;37.492;2022-08-21T01:56:07;99941.09;;;21.95;nan
49651;BME280;35547;55.676;37.492;2022-08-21T01:57:09;99939.28;;;21.95;nan
49651;BME280;35547;55.676;37.492;2022-08-21T01:58:10;99941.50;;;22.03;nan
49651;BME280;35547;55.676;37.492;2022-08-21T01:59:11;99934.53;;;21.86;nan
49651;BME280;35547;55.676;37.492;2022-08-21T02:00:13;99955.94;;;22.13;nan
49651;BME280;35547;55.676;37.492;2022-08-21T02:01:14;99956.34;;;22.21;nan
49651;BME280;35547;55.676;37.492;2022-08-21T02:02:15;99955.50;;;22.21;nan
49651;BME280;35547;55.676;37.492;2022-08-21T02:03:15;99955.84;;;22.31;nan
49651;BME280;35547;55.676;37.492;2022-08-21T02:04:16;99948.78;;;21.99;nan
49651;BME280;35547;55.676;37.492;2022-08-21T02:05:18;99946.16;;;21.69;nan
49651;BME280;35547;55.676;37.492;2022-08-21T02:06:19;99953.09;;;22.16;nan
49651;BME280;35547;55.676;37.492;2022-08-21T02:07:19;99956.19;;;22.24;nan
49651;BME280;35547;55.676;37.492;2022-08-21T02:08:20;99953.63;;;22.23;nan
49651;BME280;35547;55.676;37.492;2022-08-21T02:09:23;99941.94;;;22.25;nan
49651;BME280;35547;55.676;37.492;2022-08-21T02:10:29;99958.47;;;22.45;nan
49651;BME280;35547;55.676;37.492;2022-08-21T02:11:31;99945.97;;;22.17;nan
49651;BME280;35547;55.676;37.492;2022-08-21T02:12:32;99953.19;;;22.15;nan
49651;BME280;35547;55.676;37.492;2022-08-21T02:13:53;99953.47;;;22.10;nan
49651;BME280;35547;55.676;37.492;2022-08-21T02:14:53;99947.09;;;22.13;nan
49651;BME280;35547;55.676;37.492;2022-08-21T02:15:54;99956.34;;;22.21;nan
49651;BME280;35547;55.676;37.492;2022-08-21T02:16:54;99917.84;;;21.68;nan
49651;BME280;35547;55.676;37.492;2022-08-21T02:17:58;99952.31;;;22.00;nan
49651;BME280;35547;55.676;37.492;2022-08-21T02:18:59;99953.88;;;22.18;nan
49651;BME280;35547;55.676;37.492;2022-08-21T02:20:00;99949.84;;;22.11;nan
49651;BME280;35547;55.676;37.492;2022-08-21T02:21:01;99942.59;;;21.84;nan
49651;BME280;35547;55.676;37.492;2022-08-21T02:22:02;99930.97;;;22.01;nan
49651;BME280;35547;55.676;37.492;2022-08-21T02:23:04;99948.31;;;21.93;nan
49651;BME280;35547;55.676;37.492;2022-08-21T02:24:05;99948.16;;;22.10;nan
49651;BME280;35547;55.676;37.492;2022-08-21T02:25:06;99956.97;;;22.11;nan
49651;BME280;35547;55.676;37.492;2022-08-21T02:26:08;99951.66;;;22.26;nan
49651;BME280;35547;55.676;37.492;2022-08-21T02:27:09;99954.63;;;22.20;nan
49651;BME280;35547;55.676;37.492;2022-08-21T02:28:12;99953.44;;;21.96;nan
49651;BME280;35547;55.676;37.492;2022-08-21T02:29:13;99955.16;;;22.11;nan
49651;BME280;35547;55.676;37.492;2022-08-21T02:30:23;99924.47;;;21.91;nan
49651;BME280;35547;55.676;37.492;2022-08-21T02:31:24;99949.06;;;21.95;nan
49651;BME280;35547;55.676;37.492;2022-08-21T02:32:25;99956.56;;;22.02;nan
49651;BME280;35547;55.676;37.492;2022-08-21T02:33:26;99950.38;;;22.18;nan
49651;BME280;35547;55.676;37.492;2022-08-21T02:34:27;99957.63;;;22.30;nan
49651;BME280;35547;55.676;37.492;2022-08-21T02:35:27;99946.59;;;21.92;nan
49651;BME280;35547;55.676;37.492;2022-08-21T02:36:28;99930.34;;;21.82;nan
49651;BME280;35547;55.676;37.492;2022-08-21T02:37:29;99942.16;;;22.06;nan
49651;BME280;35547;55.676;37.492;2022-08-21T02:38:31;99940.91;;;21.83;nan
49651;BME280;35547;55.676;37.492;2022-08-21T02:39:33;99961.97;;;21.86;nan
49651;BME280;35547;55.676;37.492;2022-08-21T02:40:36;99955.25;;;21.95;nan
49651;BME280;35547;55.676;37.492;2022-08-21T02:41:37;99958.59;;;22.13;nan
49651;BME280;35547;55.676;37.492;2022-08-21T02:42:38;99956.88;;;22.42;nan
49651;BME280;35547;55.676;37.492;2022-08-21T02:43:40;99959.06;;;22.20;nan
49651;BME280;35547;55.676;37.492;2022-08-21T02:44:40;99959.22;;;21.88;nan
49651;BME280;35547;55.676;37.492;2022-08-21T02:45:42;99964.06;;;21.96;nan
49651;BME280;35547;55.676;37.492;2022-08-21T02:46:43;99963.16;;;22.11;nan
49651;BME280;35547;55.676;37.492;2022-08-21T02:47:57;99956.06;;;22.12;nan
49651;BME280;35547;55.676;37.492;2022-08-21T02:48:58;99949.78;;;22.13;nan
49651;BME280;35547;55.676;37.492;2022-08-21T02:49:59;99956.00;;;22.27;nan
49651;BME280;35547;55.676;37.492;2022-08-21T02:51:03;99952.13;;;22.33;nan
49651;BME280;35547;55.676;37.492;2022-08-21T02:52:04;99956.84;;;22.28;nan
49651;BME280;35547;55.676;37.492;2022-08-21T02:53:07;99953.16;;;22.45;nan
49651;BME280;35547;55.676;37.492;2022-08-21T02:54:09;99937.66;;;22.23;nan
49651;BME280;35547;55.676;37.492;2022-08-21T02:55:09;99955.44;;;22.37;nan
49651;BME280;35547;55.676;37.492;2022-08-21T02:56:13;99945.22;;;22.15;nan
49651;BME280;35547;55.676;37.492;2022-08-21T02:57:14;99957.66;;;22.14;nan
49651;BME280;35547;55.676;37.492;2022-08-21T02:58:18;99952.88;;;22.35;nan
49651;BME280;35547;55.676;37.492;2022-08-21T02:59:19;99959.00;;;22.21;nan
49651;BME280;35547;55.676;37.492;2022-08-21T03:00:22;99954.88;;;22.32;nan
49651;BME280;35547;55.676;37.492;2022-08-21T03:01:23;99967.41;;;22.58;nan
49651;BME280;35547;55.676;37.492;2022-08-21T03:02:25;99959.81;;;22.66;nan
49651;BME280;35547;55.676;37.492;2022-08-21T03:03:27;99960.00;;;22.92;nan
49651;BME280;35547;55.676;37.492;2022-08-21T03:04:28;99961.91;;;23.04;nan
49651;BME280;35547;55.676;37.492;2022-08-21T03:05:30;99967.06;;;22.50;nan
49651;BME280;35547;55.676;37.492;2022-08-21T03:06:31;99956.19;;;22.39;nan
49651;BME280;35547;55.676;37.492;2022-08-21T03:07:32;99967.41;;;22.73;nan
49651;BME280;35547;55.676;37.492;2022-08-21T03:08:34;99960.00;;;22.78;nan
49651;BME280;35547;55.676;37.492;2022-08-21T03:09:35;99964.56;;;22.76;nan
49651;BME280;35547;55.676;37.492;2022-08-21T03:10:41;99962.84;;;22.89;nan
49651;BME280;35547;55.676;37.492;2022-08-21T03:11:42;99964.66;;;22.74;nan
49651;BME280;35547;55.676;37.492;2022-08-21T03:12:42;99951.25;;;22.76;nan
49651;BME280;35547;55.676;37.492;2022-08-21T03:13:43;99960.56;;;22.68;nan
49651;BME280;35547;55.676;37.492;2022-08-21T03:14:44;99967.03;;;22.64;nan
49651;BME280;35547;55.676;37.492;2022-08-21T03:15:44;99956.88;;;22.71;nan
49651;BME280;35547;55.676;37.492;2022-08-21T03:16:45;99950.34;;;22.48;nan
49651;BME280;35547;55.676;37.492;2022-08-21T03:17:47;99963.50;;;22.49;nan
49651;BME280;35547;55.676;37.492;2022-08-21T03:18:48;99949.00;;;22.55;nan
49651;BME280;35547;55.676;37.492;2022-08-21T03:19:48;99952.75;;;22.80;nan
49651;BME280;35547;55.676;37.492;2022-08-21T03:20:49;99956.31;;;22.80;nan
49651;BME280;35547;55.676;37.492;2022-08-21T03:21:49;99958.13;;;22.65;nan
49651;BME280;35547;55.676;37.492;2022-08-21T03:22:51;99959.84;;;22.52;nan
49651;BME280;35547;55.676;37.492;2022-08-21T03:23:52;99965.44;;;22.62;nan
49651;BME280;35547;55.676;37.492;2022-08-21T03:24:54;99967.97;;;23.48;nan
49651;BME280;35547;55.676;37.492;2022-08-21T03:25:54;99962.16;;;23.14;nan
49651;BME280;35547;55.676;37.492;2022-08-21T03:26:55;99951.78;;;23.24;nan
49651;BME280;35547;55.676;37.492;2022-08-21T03:27:55;99966.00;;;22.81;nan
49651;BME280;35547;55.676;37.492;2022-08-21T03:28:56;99966.84;;;22.53;nan
49651;BME280;35547;55.676;37.492;2022-08-21T03:29:57;99969.63;;;22.66;nan
49651;BME280;35547;55.676;37.492;2022-08-21T03:30:58;99972.16;;;22.96;nan
49651;BME280;35547;55.676;37.492;2022-08-21T03:31:59;99974.25;;;23.05;nan
49651;BME280;35547;55.676;37.492;2022-08-21T03:32:59;99970.06;;;23.16;nan
49651;BME280;35547;55.676;37.492;2022-08-21T03:34:01;99971.00;;;22.86;nan
49651;BME280;35547;55.676;37.492;2022-08-21T03:35:02;99960.28;;;22.87;nan
49651;BME280;35547;55.676;37.492;2022-08-21T03:36:06;99965.13;;;22.81;nan
49651;BME280;35547;55.676;37.492;2022-08-21T03:37:08;99950.03;;;22.53;nan
49651;BME280;35547;55.676;37.492;2022-08-21T03:38:10;99966.19;;;22.64;nan
49651;BME280;35547;55.676;37.492;2022-08-21T03:39:13;99971.44;;;22.65;nan
49651;BME280;35547;55.676;37.492;2022-08-21T03:40:16;99963.06;;;22.72;nan
49651;BME280;35547;55.676;37.492;2022-08-21T03:41:17;99963.06;;;22.72;nan
49651;BME280;35547;55.676;37.492;2022-08-21T03:42:18;99964.28;;;22.80;nan
49651;BME280;35547;55.676;37.492;2022-08-21T03:43:18;99971.41;;;23.08;nan
49651;BME280;35547;55.676;37.492;2022-08-21T03:44:19;99971.09;;;23.27;nan
49651;BME280;35547;55.676;37.492;2022-08-21T03:45:20;99970.34;;;23.11;nan
49651;BME280;35547;55.676;37.492;2022-08-21T03:46:20;99971.22;;;22.83;nan
49651;BME280;35547;55.676;37.492;2022-08-21T03:47:21;99962.31;;;22.69;nan
49651;BME280;35547;55.676;37.492;2022-08-21T03:48:22;99976.16;;;22.75;nan
49651;BME280;35547;55.676;37.492;2022-08-21T03:49:24;99965.69;;;22.86;nan
49651;BME280;35547;55.676;37.492;2022-08-21T03:50:27;99972.81;;;23.14;nan
49651;BME280;35547;55.676;37.492;2022-08-21T03:51:29;99963.81;;;23.29;nan
49651;BME280;35547;55.676;37.492;2022-08-21T03:52:32;99966.03;;;23.23;nan
49651;BME280;35547;55.676;37.492;2022-08-21T03:53:33;99975.16;;;23.19;nan
49651;BME280;35547;55.676;37.492;2022-08-21T03:54:34;99971.28;;;23.10;nan
49651;BME280;35547;55.676;37.492;2022-08-21T03:55:34;99970.00;;;22.74;nan
49651;BME280;35547;55.676;37.492;2022-08-21T03:56:35;99965.28;;;23.21;nan
49651;BME280;35547;55.676;37.492;2022-08-21T03:57:36;99975.19;;;22.90;nan
49651;BME280;35547;55.676;37.492;2022-08-21T03:58:36;99960.00;;;22.92;nan
49651;BME280;35547;55.676;37.492;2022-08-21T03:59:38;99954.03;;;22.60;nan
49651;BME280;35547;55.676;37.492;2022-08-21T04:00:47;99963.31;;;23.10;nan
49651;BME280;35547;55.676;37.492;2022-08-21T04:02:00;99961.78;;;23.20;nan
49651;BME280;35547;55.676;37.492;2022-08-21T04:03:01;99966.66;;;22.85;nan
49651;BME280;35547;55.676;37.492;2022-08-21T04:04:03;99965.88;;;22.97;nan
49651;BME280;35547;55.676;37.492;2022-08-21T04:05:04;99967.75;;;23.24;nan
49651;BME280;35547;55.676;37.492;2022-08-21T04:06:05;99966.28;;;22.91;nan
49651;BME280;35547;55.676;37.492;2022-08-21T04:07:06;99959.53;;;22.71;nan
49651;BME280;35547;55.676;37.492;2022-08-21T04:08:07;99956.00;;;22.85;nan
49651;BME280;35547;55.676;37.492;2022-08-21T04:09:07;99951.38;;;22.74;nan
49651;BME280;35547;55.676;37.492;2022-08-21T04:10:08;99956.75;;;23.01;nan
49651;BME280;35547;55.676;37.492;2022-08-21T04:11:09;99956.28;;;22.95;nan
49651;BME280;35547;55.676;37.492;2022-08-21T04:12:12;99960.28;;;22.87;nan
49651;BME280;35547;55.676;37.492;2022-08-21T04:13:13;99951.13;;;23.20;nan
49651;BME280;35547;55.676;37.492;2022-08-21T04:14:15;99960.78;;;23.36;nan
49651;BME280;35547;55.676;37.492;2022-08-21T04:15:16;99956.81;;;23.28;nan
49651;BME280;35547;55.676;37.492;2022-08-21T04:16:17;99958.00;;;23.37;nan
49651;BME280;35547;55.676;37.492;2022-08-21T04:17:18;99970.16;;;23.14;nan
49651;BME280;35547;55.676;37.492;2022-08-21T04:18:18;99971.47;;;23.48;nan
49651;BME280;35547;55.676;37.492;2022-08-21T04:19:19;99950.69;;;23.41;nan
49651;BME280;35547;55.676;37.492;2022-08-21T04:20:21;99965.66;;;23.56;nan
49651;BME280;35547;55.676;37.492;2022-08-21T04:21:21;99968.94;;;24.40;nan
49651;BME280;35547;55.676;37.492;2022-08-21T04:22:23;99964.66;;;24.11;nan
49651;BME280;35547;55.676;37.492;2022-08-21T04:23:23;99969.50;;;23.79;nan
49651;BME280;35547;55.676;37.492;2022-08-21T04:24:24;99962.28;;;23.67;nan
49651;BME280;35547;55.676;37.492;2022-08-21T04:25:25;99954.69;;;23.61;nan
49651;BME280;35547;55.676;37.492;2022-08-21T04:26:26;99959.56;;;23.27;nan
49651;BME280;35547;55.676;37.492;2022-08-21T04:27:26;99965.84;;;23.26;nan
49651;BME280;35547;55.676;37.492;2022-08-21T04:28:27;99963.97;;;23.68;nan
49651;BME280;35547;55.676;37.492;2022-08-21T04:29:28;99959.47;;;23.83;nan
49651;BME280;35547;55.676;37.492;2022-08-21T04:30:30;99961.03;;;23.45;nan
49651;BME280;35547;55.676;37.492;2022-08-21T04:31:31;99965.59;;;23.43;nan
49651;BME280;35547;55.676;37.492;2022-08-21T04:32:32;99968.38;;;23.69;nan
49651;BME280;35547;55.676;37.492;2022-08-21T04:33:32;99965.56;;;23.98;nan
49651;BME280;35547;55.676;37.492;2022-08-21T04:34:33;99955.78;;;23.71;nan
49651;BME280;35547;55.676;37.492;2022-08-21T04:35:33;99956.28;;;23.78;nan
49651;BME280;35547;55.676;37.492;2022-08-21T04:36:34;99959.19;;;23.60;nan
49651;BME280;35547;55.676;37.492;2022-08-21T04:37:36;99958.47;;;23.71;nan
49651;BME280;35547;55.676;37.492;2022-08-21T04:38:37;99965.78;;;23.82;nan
49651;BME280;35547;55.676;37.492;2022-08-21T04:39:38;99959.25;;;23.59;nan
49651;BME280;35547;55.676;37.492;2022-08-21T04:40:38;99965.78;;;23.40;nan
49651;BME280;35547;55.676;37.492;2022-08-21T04:41:39;99962.34;;;23.52;nan
49651;BME280;35547;55.676;37.492;2022-08-21T04:42:48;99970.63;;;23.75;nan
49651;BME280;35547;55.676;37.492;2022-08-21T04:43:52;99973.06;;;24.05;nan
49651;BME280;35547;55.676;37.492;2022-08-21T04:44:52;99960.59;;;24.06;nan
49651;BME280;35547;55.676;37.492;2022-08-21T04:45:53;99969.34;;;23.41;nan
49651;BME280;35547;55.676;37.492;2022-08-21T04:46:54;99979.66;;;23.60;nan
49651;BME280;35547;55.676;37.492;2022-08-21T04:47:57;99976.16;;;23.72;nan
49651;BME280;35547;55.676;37.492;2022-08-21T04:48:59;99971.25;;;23.39;nan
49651;BME280;35547;55.676;37.492;2022-08-21T04:49:59;99941.91;;;23.12;nan
49651;BME280;35547;55.676;37.492;2022-08-21T04:52:03;99972.41;;;23.62;nan
49651;BME280;35547;55.676;37.492;2022-08-21T04:53:12;99976.06;;;24.01;nan
49651;BME280;35547;55.676;37.492;2022-08-21T04:54:18;99973.41;;;24.14;nan
49651;BME280;35547;55.676;37.492;2022-08-21T04:55:21;99973.09;;;23.78;nan
49651;BME280;35547;55.676;37.492;2022-08-21T04:56:30;99981.25;;;24.02;nan
49651;BME280;35547;55.676;37.492;2022-08-21T04:57:31;99976.22;;;23.58;nan
49651;BME280;35547;55.676;37.492;2022-08-21T04:58:34;99974.63;;;23.68;nan
49651;BME280;35547;55.676;37.492;2022-08-21T04:59:42;99965.84;;;24.20;nan
49651;BME280;35547;55.676;37.492;2022-08-21T05:00:44;99969.16;;;24.62;nan
49651;BME280;35547;55.676;37.492;2022-08-21T05:01:45;99974.47;;;24.37;nan
49651;BME280;35547;55.676;37.492;2022-08-21T05:02:47;99974.44;;;23.98;nan
49651;BME280;35547;55.676;37.492;2022-08-21T05:03:50;99955.47;;;24.03;nan
49651;BME280;35547;55.676;37.492;2022-08-21T05:04:54;99979.59;;;24.27;nan
49651;BME280;35547;55.676;37.492;2022-08-21T05:05:55;99965.94;;;24.31;nan
49651;BME280;35547;55.676;37.492;2022-08-21T05:06:59;99965.72;;;24.47;nan
49651;BME280;35547;55.676;37.492;2022-08-21T05:08:02;99971.47;;;24.03;nan
49651;BME280;35547;55.676;37.492;2022-08-21T05:09:04;99983.78;;;24.31;nan
49651;BME280;35547;55.676;37.492;2022-08-21T05:10:06;99967.34;;;24.50;nan
49651;BME280;35547;55.676;37.492;2022-08-21T05:11:09;99974.41;;;23.85;nan
49651;BME280;35547;55.676;37.492;2022-08-21T05:12:09;99969.94;;;23.86;nan
49651;BME280;35547;55.676;37.492;2022-08-21T05:13:11;99971.97;;;23.95;nan
49651;BME280;35547;55.676;37.492;2022-08-21T05:14:12;99960.56;;;23.93;nan
49651;BME280;35547;55.676;37.492;2022-08-21T05:15:13;99978.28;;;23.94;nan
49651;BME280;35547;55.676;37.492;2022-08-21T05:16:14;99965.47;;;23.99;nan
49651;BME280;35547;55.676;37.492;2022-08-21T05:17:15;99973.66;;;24.62;nan
49651;BME280;35547;55.676;37.492;2022-08-21T05:18:17;99974.69;;;24.46;nan
49651;BME280;35547;55.676;37.492;2022-08-21T05:19:17;99956.53;;;24.13;nan
49651;BME280;35547;55.676;37.492;2022-08-21T05:20:18;99962.72;;;24.39;nan
49651;BME280;35547;55.676;37.492;2022-08-21T05:21:20;99968.50;;;24.20;nan
49651;BME280;35547;55.676;37.492;2022-08-21T05:22:21;99966.56;;;23.97;nan
49651;BME280;35547;55.676;37.492;2022-08-21T05:23:22;99959.16;;;23.87;nan
49651;BME280;35547;55.676;37.492;2022-08-21T05:24:23;99969.34;;;24.08;nan
49651;BME280;35547;55.676;37.492;2022-08-21T05:25:24;99948.06;;;23.81;nan
49651;BME280;35547;55.676;37.492;2022-08-21T05:26:25;99974.34;;;24.00;nan
49651;BME280;35547;55.676;37.492;2022-08-21T05:27:25;99959.53;;;24.47;nan
49651;BME280;35547;55.676;37.492;2022-08-21T05:28:26;99938.00;;;24.24;nan
49651;BME280;35547;55.676;37.492;2022-08-21T05:29:27;99973.97;;;24.83;nan
49651;BME280;35547;55.676;37.492;2022-08-21T05:30:29;99945.56;;;24.56;nan
49651;BME280;35547;55.676;37.492;2022-08-21T05:31:30;99967.25;;;24.64;nan
49651;BME280;35547;55.676;37.492;2022-08-21T05:32:30;99965.13;;;24.69;nan